Armstrong, Alabama
Current Conditions -  °F | °C
As of 5:35 PM on Saturday 22 Nov 2014 (Local Time) from KAUO Reporting Station
Overcast Overcast  
Wind Chill: 57°   Ceiling: 3200
Heat Index: 57°   Visibility: 10mi
Dew Point: 43°   Wind: 8mph
Humidity: 59%   Direction: 100°E
Pressure: 30.23"   Gusts: NA
Location:  32.2227°N, 85.6394°W
Report Text: KAUO 222335Z AUTO 10007KT 10SM BKN032 OVC070 14/06 A3023 RMK AO1
Loading
Personal Weather Stations






























Interactive Weather Map New forecast layout! Learn more

10-Day Weather Forecast

Advertisements
Track Severe Weather on mobile